sensor_id;sensor_type;location;lat;lon;timestamp;temperature;humidity
64997;SHT31;51545;51.568;6.998;2022-10-17T00:00:23;14.70;98.87
64997;SHT31;51545;51.568;6.998;2022-10-17T00:02:48;14.66;98.66
64997;SHT31;51545;51.568;6.998;2022-10-17T00:05:14;14.55;98.49
64997;SHT31;51545;51.568;6.998;2022-10-17T00:07:39;14.48;98.41
64997;SHT31;51545;51.568;6.998;2022-10-17T00:10:06;14.40;98.37
64997;SHT31;51545;51.568;6.998;2022-10-17T00:12:32;14.36;98.49
64997;SHT31;51545;51.568;6.998;2022-10-17T00:14:58;14.26;98.44
64997;SHT31;51545;51.568;6.998;2022-10-17T00:17:24;14.30;98.66
64997;SHT31;51545;51.568;6.998;2022-10-17T00:19:49;14.28;98.65
64997;SHT31;51545;51.568;6.998;2022-10-17T00:22:15;14.28;98.57
64997;SHT31;51545;51.568;6.998;2022-10-17T00:24:40;14.23;98.51
64997;SHT31;51545;51.568;6.998;2022-10-17T00:27:06;14.22;98.64
64997;SHT31;51545;51.568;6.998;2022-10-17T00:29:31;14.19;98.61
64997;SHT31;51545;51.568;6.998;2022-10-17T00:31:57;14.19;98.60
64997;SHT31;51545;51.568;6.998;2022-10-17T00:34:23;14.22;98.75
64997;SHT31;51545;51.568;6.998;2022-10-17T00:36:49;14.25;98.82
64997;SHT31;51545;51.568;6.998;2022-10-17T00:39:15;14.36;99.05
64997;SHT31;51545;51.568;6.998;2022-10-17T00:41:41;14.28;98.80
64997;SHT31;51545;51.568;6.998;2022-10-17T00:46:55;14.29;98.93
64997;SHT31;51545;51.568;6.998;2022-10-17T00:49:26;14.34;99.17
64997;SHT31;51545;51.568;6.998;2022-10-17T00:51:56;14.52;99.53
64997;SHT31;51545;51.568;6.998;2022-10-17T00:54:26;14.50;99.46
64997;SHT31;51545;51.568;6.998;2022-10-17T00:56:55;14.64;99.65
64997;SHT31;51545;51.568;6.998;2022-10-17T00:59:22;14.74;99.86
64997;SHT31;51545;51.568;6.998;2022-10-17T01:02:30;14.67;99.80
64997;SHT31;51545;51.568;6.998;2022-10-17T01:04:39;14.73;99.99
64997;SHT31;51545;51.568;6.998;2022-10-17T01:07:07;14.91;99.99
64997;SHT31;51545;51.568;6.998;2022-10-17T01:09:33;14.95;99.99
64997;SHT31;51545;51.568;6.998;2022-10-17T01:17:34;14.99;99.99
64997;SHT31;51545;51.568;6.998;2022-10-17T01:20:25;15.01;99.99
64997;SHT31;51545;51.568;6.998;2022-10-17T01:26:17;14.99;99.99
64997;SHT31;51545;51.568;6.998;2022-10-17T01:31:50;14.80;99.99
64997;SHT31;51545;51.568;6.998;2022-10-17T01:34:23;14.80;99.99
64997;SHT31;51545;51.568;6.998;2022-10-17T01:37:05;14.70;99.99
64997;SHT31;51545;51.568;6.998;2022-10-17T01:44:49;14.59;99.99
64997;SHT31;51545;51.568;6.998;2022-10-17T01:47:23;14.59;99.99
64997;SHT31;51545;51.568;6.998;2022-10-17T01:49:52;14.48;99.99
64997;SHT31;51545;51.568;6.998;2022-10-17T01:52:23;14.42;99.99
64997;SHT31;51545;51.568;6.998;2022-10-17T01:54:54;14.44;99.99
64997;SHT31;51545;51.568;6.998;2022-10-17T01:57:29;14.43;99.99
64997;SHT31;51545;51.568;6.998;2022-10-17T01:59:58;14.34;99.99
64997;SHT31;51545;51.568;6.998;2022-10-17T02:02:26;14.32;99.99
64997;SHT31;51545;51.568;6.998;2022-10-17T02:04:53;14.40;99.99
64997;SHT31;51545;51.568;6.998;2022-10-17T02:07:20;14.37;99.99
64997;SHT31;51545;51.568;6.998;2022-10-17T02:09:46;14.32;99.99
64997;SHT31;51545;51.568;6.998;2022-10-17T02:12:26;14.36;99.99
64997;SHT31;51545;51.568;6.998;2022-10-17T02:26:16;14.14;99.87
64997;SHT31;51545;51.568;6.998;2022-10-17T02:32:02;14.02;99.80
64997;SHT31;51545;51.568;6.998;2022-10-17T02:34:30;13.95;99.80
64997;SHT31;51545;51.568;6.998;2022-10-17T02:37:12;13.90;99.76
64997;SHT31;51545;51.568;6.998;2022-10-17T02:39:40;13.88;99.72
64997;SHT31;51545;51.568;6.998;2022-10-17T02:42:09;13.84;99.75
64997;SHT31;51545;51.568;6.998;2022-10-17T02:44:36;13.88;99.75
64997;SHT31;51545;51.568;6.998;2022-10-17T02:47:24;13.77;99.51
64997;SHT31;51545;51.568;6.998;2022-10-17T02:49:56;13.74;99.62
64997;SHT31;51545;51.568;6.998;2022-10-17T02:52:25;13.71;99.57
64997;SHT31;51545;51.568;6.998;2022-10-17T02:55:00;13.66;99.50
64997;SHT31;51545;51.568;6.998;2022-10-17T02:57:35;13.70;99.57
64997;SHT31;51545;51.568;6.998;2022-10-17T03:00:05;13.67;99.53
64997;SHT31;51545;51.568;6.998;2022-10-17T03:02:40;13.67;99.56
64997;SHT31;51545;51.568;6.998;2022-10-17T03:05:07;13.66;99.44
64997;SHT31;51545;51.568;6.998;2022-10-17T03:07:34;13.61;99.45
64997;SHT31;51545;51.568;6.998;2022-10-17T03:09:59;13.60;99.40
64997;SHT31;51545;51.568;6.998;2022-10-17T03:12:25;13.59;99.47
64997;SHT31;51545;51.568;6.998;2022-10-17T03:14:50;13.56;99.40
64997;SHT31;51545;51.568;6.998;2022-10-17T03:17:16;13.56;99.40
64997;SHT31;51545;51.568;6.998;2022-10-17T03:19:42;13.53;99.41
64997;SHT31;51545;51.568;6.998;2022-10-17T03:22:08;13.53;99.32
64997;SHT31;51545;51.568;6.998;2022-10-17T03:24:34;13.54;99.30
64997;SHT31;51545;51.568;6.998;2022-10-17T03:26:59;13.54;99.27
64997;SHT31;51545;51.568;6.998;2022-10-17T03:29:25;13.47;99.21
64997;SHT31;51545;51.568;6.998;2022-10-17T03:31:50;13.50;99.20
64997;SHT31;51545;51.568;6.998;2022-10-17T03:34:16;13.46;99.08
64997;SHT31;51545;51.568;6.998;2022-10-17T03:36:43;13.43;99.15
64997;SHT31;51545;51.568;6.998;2022-10-17T03:39:08;13.40;99.08
64997;SHT31;51545;51.568;6.998;2022-10-17T03:41:34;13.35;99.08
64997;SHT31;51545;51.568;6.998;2022-10-17T03:44:00;13.39;99.13
64997;SHT31;51545;51.568;6.998;2022-10-17T03:46:25;13.57;99.71
64997;SHT31;51545;51.568;6.998;2022-10-17T03:48:51;13.60;99.73
64997;SHT31;51545;51.568;6.998;2022-10-17T03:51:16;13.61;99.59
64997;SHT31;51545;51.568;6.998;2022-10-17T03:53:42;13.61;99.63
64997;SHT31;51545;51.568;6.998;2022-10-17T03:56:14;13.70;99.74
64997;SHT31;51545;51.568;6.998;2022-10-17T03:58:41;13.64;99.49
64997;SHT31;51545;51.568;6.998;2022-10-17T04:01:07;13.61;99.47
64997;SHT31;51545;51.568;6.998;2022-10-17T04:03:35;13.67;99.53
64997;SHT31;51545;51.568;6.998;2022-10-17T04:06:01;13.66;99.42
64997;SHT31;51545;51.568;6.998;2022-10-17T04:08:28;13.64;99.38
64997;SHT31;51545;51.568;6.998;2022-10-17T04:10:57;13.69;99.41
64997;SHT31;51545;51.568;6.998;2022-10-17T04:13:27;13.69;99.38
64997;SHT31;51545;51.568;6.998;2022-10-17T04:16:00;13.64;99.23
64997;SHT31;51545;51.568;6.998;2022-10-17T04:18:27;13.64;99.24
64997;SHT31;51545;51.568;6.998;2022-10-17T04:20:53;13.61;99.31
64997;SHT31;51545;51.568;6.998;2022-10-17T04:23:19;13.59;99.25
64997;SHT31;51545;51.568;6.998;2022-10-17T04:25:44;13.77;99.83
64997;SHT31;51545;51.568;6.998;2022-10-17T04:28:10;14.00;99.99
64997;SHT31;51545;51.568;6.998;2022-10-17T04:30:36;13.98;99.99
64997;SHT31;51545;51.568;6.998;2022-10-17T04:33:01;14.08;99.99
64997;SHT31;51545;51.568;6.998;2022-10-17T04:35:27;14.08;99.99
64997;SHT31;51545;51.568;6.998;2022-10-17T04:37:53;14.11;99.99
64997;SHT31;51545;51.568;6.998;2022-10-17T04:40:18;14.05;99.99
64997;SHT31;51545;51.568;6.998;2022-10-17T04:42:44;14.06;99.99
64997;SHT31;51545;51.568;6.998;2022-10-17T04:45:10;14.08;99.99
64997;SHT31;51545;51.568;6.998;2022-10-17T04:47:35;14.14;99.99
64997;SHT31;51545;51.568;6.998;2022-10-17T04:50:01;14.09;99.99
64997;SHT31;51545;51.568;6.998;2022-10-17T04:52:27;14.11;99.99
64997;SHT31;51545;51.568;6.998;2022-10-17T04:54:53;14.21;99.99
64997;SHT31;51545;51.568;6.998;2022-10-17T04:57:18;14.43;99.99
64997;SHT31;51545;51.568;6.998;2022-10-17T04:59:44;14.33;99.99
64997;SHT31;51545;51.568;6.998;2022-10-17T05:02:09;14.42;99.99
64997;SHT31;51545;51.568;6.998;2022-10-17T05:04:35;14.53;99.99
64997;SHT31;51545;51.568;6.998;2022-10-17T05:07:00;14.59;99.99
64997;SHT31;51545;51.568;6.998;2022-10-17T05:09:26;14.59;99.99
64997;SHT31;51545;51.568;6.998;2022-10-17T05:11:51;14.56;99.99
64997;SHT31;51545;51.568;6.998;2022-10-17T05:14:17;14.53;99.99
64997;SHT31;51545;51.568;6.998;2022-10-17T05:16:42;14.52;99.99
64997;SHT31;51545;51.568;6.998;2022-10-17T05:19:08;14.55;99.99
64997;SHT31;51545;51.568;6.998;2022-10-17T05:21:35;14.46;99.99
64997;SHT31;51545;51.568;6.998;2022-10-17T05:24:03;14.44;99.99
64997;SHT31;51545;51.568;6.998;2022-10-17T05:26:29;14.50;99.99
64997;SHT31;51545;51.568;6.998;2022-10-17T05:28:55;14.57;99.99
64997;SHT31;51545;51.568;6.998;2022-10-17T05:31:20;14.69;99.99
64997;SHT31;51545;51.568;6.998;2022-10-17T05:33:46;14.73;99.99
64997;SHT31;51545;51.568;6.998;2022-10-17T05:36:12;14.69;99.99
64997;SHT31;51545;51.568;6.998;2022-10-17T05:38:37;14.69;99.99
64997;SHT31;51545;51.568;6.998;2022-10-17T05:41:03;14.76;99.99
64997;SHT31;51545;51.568;6.998;2022-10-17T05:43:30;14.87;99.99
64997;SHT31;51545;51.568;6.998;2022-10-17T05:45:55;14.88;99.99
64997;SHT31;51545;51.568;6.998;2022-10-17T05:48:21;14.95;99.99
64997;SHT31;51545;51.568;6.998;2022-10-17T05:50:47;15.02;99.99
64997;SHT31;51545;51.568;6.998;2022-10-17T05:53:14;15.20;99.99
64997;SHT31;51545;51.568;6.998;2022-10-17T05:55:40;15.14;99.99
64997;SHT31;51545;51.568;6.998;2022-10-17T05:58:06;14.98;99.99
64997;SHT31;51545;51.568;6.998;2022-10-17T06:00:31;15.22;99.99
64997;SHT31;51545;51.568;6.998;2022-10-17T06:02:57;15.28;99.99
64997;SHT31;51545;51.568;6.998;2022-10-17T06:05:22;15.32;99.99
64997;SHT31;51545;51.568;6.998;2022-10-17T06:07:48;15.28;99.99
64997;SHT31;51545;51.568;6.998;2022-10-17T06:10:16;15.39;99.99
64997;SHT31;51545;51.568;6.998;2022-10-17T06:12:44;15.50;99.99
64997;SHT31;51545;51.568;6.998;2022-10-17T06:15:10;15.47;99.99
64997;SHT31;51545;51.568;6.998;2022-10-17T06:17:36;16.01;99.15
64997;SHT31;51545;51.568;6.998;2022-10-17T06:20:02;15.98;98.60
64997;SHT31;51545;51.568;6.998;2022-10-17T06:22:29;15.99;98.39
64997;SHT31;51545;51.568;6.998;2022-10-17T06:24:54;15.95;98.13
64997;SHT31;51545;51.568;6.998;2022-10-17T06:27:21;15.94;98.26
64997;SHT31;51545;51.568;6.998;2022-10-17T06:29:46;15.84;98.18
64997;SHT31;51545;51.568;6.998;2022-10-17T06:32:12;15.87;98.50
64997;SHT31;51545;51.568;6.998;2022-10-17T06:34:38;15.95;98.66
64997;SHT31;51545;51.568;6.998;2022-10-17T06:37:03;15.98;98.34
64997;SHT31;51545;51.568;6.998;2022-10-17T06:39:28;16.15;98.19
64997;SHT31;51545;51.568;6.998;2022-10-17T06:42:01;16.11;97.76
64997;SHT31;51545;51.568;6.998;2022-10-17T06:44:28;16.16;97.79
64997;SHT31;51545;51.568;6.998;2022-10-17T06:46:56;16.26;97.45
64997;SHT31;51545;51.568;6.998;2022-10-17T06:49:25;16.28;97.01
64997;SHT31;51545;51.568;6.998;2022-10-17T06:51:51;16.29;97.07
64997;SHT31;51545;51.568;6.998;2022-10-17T06:54:16;16.25;97.09
64997;SHT31;51545;51.568;6.998;2022-10-17T06:56:42;16.30;97.21
64997;SHT31;51545;51.568;6.998;2022-10-17T06:59:08;16.28;97.03
64997;SHT31;51545;51.568;6.998;2022-10-17T07:01:34;16.35;97.10
64997;SHT31;51545;51.568;6.998;2022-10-17T07:03:59;16.33;96.84
64997;SHT31;51545;51.568;6.998;2022-10-17T07:06:25;16.42;96.30
64997;SHT31;51545;51.568;6.998;2022-10-17T07:08:50;16.50;95.85
64997;SHT31;51545;51.568;6.998;2022-10-17T07:11:17;16.59;95.65
64997;SHT31;51545;51.568;6.998;2022-10-17T07:13:44;16.64;95.09
64997;SHT31;51545;51.568;6.998;2022-10-17T07:16:10;16.72;94.57
64997;SHT31;51545;51.568;6.998;2022-10-17T07:18:37;16.78;94.55
64997;SHT31;51545;51.568;6.998;2022-10-17T07:21:02;16.87;94.36
64997;SHT31;51545;51.568;6.998;2022-10-17T07:23:28;16.89;94.37
64997;SHT31;51545;51.568;6.998;2022-10-17T07:26:01;16.97;94.07
64997;SHT31;51545;51.568;6.998;2022-10-17T07:28:31;16.99;94.07
64997;SHT31;51545;51.568;6.998;2022-10-17T07:31:01;17.04;94.03
64997;SHT31;51545;51.568;6.998;2022-10-17T07:33:31;17.15;93.64
64997;SHT31;51545;51.568;6.998;2022-10-17T07:35:57;17.14;94.23
64997;SHT31;51545;51.568;6.998;2022-10-17T07:38:26;17.15;94.12
64997;SHT31;51545;51.568;6.998;2022-10-17T07:40:55;17.18;94.27
64997;SHT31;51545;51.568;6.998;2022-10-17T07:43:23;17.20;94.65
64997;SHT31;51545;51.568;6.998;2022-10-17T07:45:49;17.27;94.31
64997;SHT31;51545;51.568;6.998;2022-10-17T07:48:16;17.35;94.04
64997;SHT31;51545;51.568;6.998;2022-10-17T07:50:41;17.50;93.45
64997;SHT31;51545;51.568;6.998;2022-10-17T07:53:07;17.61;93.26
64997;SHT31;51545;51.568;6.998;2022-10-17T07:55:33;17.70;92.42
64997;SHT31;51545;51.568;6.998;2022-10-17T07:57:58;17.73;92.56
64997;SHT31;51545;51.568;6.998;2022-10-17T08:00:26;17.77;92.64
64997;SHT31;51545;51.568;6.998;2022-10-17T08:02:52;17.77;92.62
64997;SHT31;51545;51.568;6.998;2022-10-17T08:05:17;17.78;92.64
64997;SHT31;51545;51.568;6.998;2022-10-17T08:07:43;17.87;92.69
64997;SHT31;51545;51.568;6.998;2022-10-17T08:10:10;17.85;92.95
64997;SHT31;51545;51.568;6.998;2022-10-17T08:12:38;17.94;92.97
64997;SHT31;51545;51.568;6.998;2022-10-17T08:15:04;18.05;92.76
64997;SHT31;51545;51.568;6.998;2022-10-17T08:17:32;18.26;90.92
64997;SHT31;51545;51.568;6.998;2022-10-17T08:19:58;18.42;91.34
64997;SHT31;51545;51.568;6.998;2022-10-17T08:22:24;18.54;91.06
64997;SHT31;51545;51.568;6.998;2022-10-17T08:24:50;18.65;89.53
64997;SHT31;51545;51.568;6.998;2022-10-17T08:27:15;18.71;88.51
64997;SHT31;51545;51.568;6.998;2022-10-17T08:29:45;18.70;89.42
64997;SHT31;51545;51.568;6.998;2022-10-17T08:32:12;18.78;88.62
64997;SHT31;51545;51.568;6.998;2022-10-17T08:34:38;18.84;88.92
64997;SHT31;51545;51.568;6.998;2022-10-17T08:37:03;18.82;89.23
64997;SHT31;51545;51.568;6.998;2022-10-17T08:39:29;18.99;88.06
64997;SHT31;51545;51.568;6.998;2022-10-17T08:44:35;19.37;87.20
64997;SHT31;51545;51.568;6.998;2022-10-17T08:47:28;19.57;84.92
64997;SHT31;51545;51.568;6.998;2022-10-17T08:50:01;19.68;84.61
64997;SHT31;51545;51.568;6.998;2022-10-17T08:52:42;19.60;85.24
64997;SHT31;51545;51.568;6.998;2022-10-17T08:55:16;19.67;83.37
64997;SHT31;51545;51.568;6.998;2022-10-17T08:57:52;19.65;83.13
64997;SHT31;51545;51.568;6.998;2022-10-17T09:00:18;19.58;83.87
64997;SHT31;51545;51.568;6.998;2022-10-17T09:08:50;19.61;83.61
64997;SHT31;51545;51.568;6.998;2022-10-17T09:19:38;19.92;83.11
64997;SHT31;51545;51.568;6.998;2022-10-17T09:22:16;19.99;82.36
64997;SHT31;51545;51.568;6.998;2022-10-17T09:29:50;20.09;81.76
64997;SHT31;51545;51.568;6.998;2022-10-17T09:32:23;20.10;82.47
64997;SHT31;51545;51.568;6.998;2022-10-17T09:34:52;20.04;82.15
64997;SHT31;51545;51.568;6.998;2022-10-17T09:37:18;20.09;81.86
64997;SHT31;51545;51.568;6.998;2022-10-17T09:39:49;20.16;82.49
64997;SHT31;51545;51.568;6.998;2022-10-17T09:42:15;20.08;82.22
64997;SHT31;51545;51.568;6.998;2022-10-17T09:44:50;20.01;82.80
64997;SHT31;51545;51.568;6.998;2022-10-17T09:47:29;19.95;82.95
64997;SHT31;51545;51.568;6.998;2022-10-17T09:50:04;19.97;82.63
64997;SHT31;51545;51.568;6.998;2022-10-17T09:52:39;19.99;82.58
64997;SHT31;51545;51.568;6.998;2022-10-17T09:58:10;20.06;81.59
64997;SHT31;51545;51.568;6.998;2022-10-17T10:00:37;20.12;81.31
64997;SHT31;51545;51.568;6.998;2022-10-17T10:06:00;20.02;81.50
64997;SHT31;51545;51.568;6.998;2022-10-17T10:08:32;19.98;82.18
64997;SHT31;51545;51.568;6.998;2022-10-17T10:11:00;19.93;81.55
64997;SHT31;51545;51.568;6.998;2022-10-17T10:13:31;19.86;81.93
64997;SHT31;51545;51.568;6.998;2022-10-17T10:16:17;19.88;81.40
64997;SHT31;51545;51.568;6.998;2022-10-17T10:18:46;19.86;81.72
64997;SHT31;51545;51.568;6.998;2022-10-17T10:21:17;19.81;81.60
64997;SHT31;51545;51.568;6.998;2022-10-17T10:24:00;19.77;82.33
64997;SHT31;51545;51.568;6.998;2022-10-17T10:26:31;19.67;82.91
64997;SHT31;51545;51.568;6.998;2022-10-17T10:29:00;19.51;83.26
64997;SHT31;51545;51.568;6.998;2022-10-17T10:31:34;19.54;83.31
64997;SHT31;51545;51.568;6.998;2022-10-17T10:34:25;19.50;84.05
64997;SHT31;51545;51.568;6.998;2022-10-17T10:36:55;19.54;84.20
64997;SHT31;51545;51.568;6.998;2022-10-17T10:42:05;19.64;84.37
64997;SHT31;51545;51.568;6.998;2022-10-17T10:44:41;19.81;83.53
64997;SHT31;51545;51.568;6.998;2022-10-17T10:47:08;19.91;83.84
64997;SHT31;51545;51.568;6.998;2022-10-17T10:49:38;19.93;82.94
64997;SHT31;51545;51.568;6.998;2022-10-17T10:52:03;20.01;83.62
64997;SHT31;51545;51.568;6.998;2022-10-17T10:54:36;20.08;82.30
64997;SHT31;51545;51.568;6.998;2022-10-17T10:57:06;20.12;82.70
64997;SHT31;51545;51.568;6.998;2022-10-17T10:59:57;20.16;82.20
64997;SHT31;51545;51.568;6.998;2022-10-17T11:05:33;20.06;82.59
64997;SHT31;51545;51.568;6.998;2022-10-17T11:08:06;19.91;83.00
64997;SHT31;51545;51.568;6.998;2022-10-17T11:10:42;19.85;82.71
64997;SHT31;51545;51.568;6.998;2022-10-17T11:13:18;19.77;82.73
64997;SHT31;51545;51.568;6.998;2022-10-17T11:16:17;19.75;82.76
64997;SHT31;51545;51.568;6.998;2022-10-17T11:21:58;19.68;84.33
64997;SHT31;51545;51.568;6.998;2022-10-17T11:24:53;19.54;86.28
64997;SHT31;51545;51.568;6.998;2022-10-17T11:27:21;19.47;86.16
64997;SHT31;51545;51.568;6.998;2022-10-17T11:29:47;19.46;86.57
64997;SHT31;51545;51.568;6.998;2022-10-17T11:32:18;19.47;85.61
64997;SHT31;51545;51.568;6.998;2022-10-17T11:34:53;19.49;86.27
64997;SHT31;51545;51.568;6.998;2022-10-17T11:37:26;19.53;87.71
64997;SHT31;51545;51.568;6.998;2022-10-17T11:40:04;19.51;88.00
64997;SHT31;51545;51.568;6.998;2022-10-17T11:45:32;19.44;87.50
64997;SHT31;51545;51.568;6.998;2022-10-17T11:48:09;19.42;87.89
64997;SHT31;51545;51.568;6.998;2022-10-17T11:50:42;19.51;87.89
64997;SHT31;51545;51.568;6.998;2022-10-17T11:53:19;19.57;87.47
64997;SHT31;51545;51.568;6.998;2022-10-17T11:55:48;19.63;87.40
64997;SHT31;51545;51.568;6.998;2022-10-17T11:58:37;19.70;86.02
64997;SHT31;51545;51.568;6.998;2022-10-17T12:09:54;19.79;85.73
64997;SHT31;51545;51.568;6.998;2022-10-17T12:12:32;19.85;86.31
64997;SHT31;51545;51.568;6.998;2022-10-17T12:22:47;19.63;84.71
64997;SHT31;51545;51.568;6.998;2022-10-17T12:28:16;19.63;85.51
64997;SHT31;51545;51.568;6.998;2022-10-17T12:30:48;19.61;84.85
64997;SHT31;51545;51.568;6.998;2022-10-17T12:33:18;19.58;85.27
64997;SHT31;51545;51.568;6.998;2022-10-17T12:35:50;19.61;85.28
64997;SHT31;51545;51.568;6.998;2022-10-17T12:38:35;19.57;85.62
64997;SHT31;51545;51.568;6.998;2022-10-17T12:41:01;19.58;85.05
64997;SHT31;51545;51.568;6.998;2022-10-17T12:45:55;19.50;86.39
64997;SHT31;51545;51.568;6.998;2022-10-17T12:56:13;19.44;87.24
64997;SHT31;51545;51.568;6.998;2022-10-17T12:58:48;19.42;87.83
64997;SHT31;51545;51.568;6.998;2022-10-17T13:01:21;19.42;87.26
64997;SHT31;51545;51.568;6.998;2022-10-17T13:03:51;19.43;87.42
64997;SHT31;51545;51.568;6.998;2022-10-17T13:06:22;19.44;87.39
64997;SHT31;51545;51.568;6.998;2022-10-17T13:09:47;19.39;87.68
64997;SHT31;51545;51.568;6.998;2022-10-17T13:11:52;19.37;87.72
64997;SHT31;51545;51.568;6.998;2022-10-17T13:14:19;19.35;87.87
64997;SHT31;51545;51.568;6.998;2022-10-17T13:16:54;19.36;88.29
64997;SHT31;51545;51.568;6.998;2022-10-17T13:19:21;19.27;88.80
64997;SHT31;51545;51.568;6.998;2022-10-17T13:21:58;19.29;88.36
64997;SHT31;51545;51.568;6.998;2022-10-17T13:24:30;19.29;88.28
64997;SHT31;51545;51.568;6.998;2022-10-17T13:26:58;19.26;88.38
64997;SHT31;51545;51.568;6.998;2022-10-17T13:29:25;19.29;88.48
64997;SHT31;51545;51.568;6.998;2022-10-17T13:31:57;19.26;88.49
64997;SHT31;51545;51.568;6.998;2022-10-17T13:34:25;19.26;87.88
64997;SHT31;51545;51.568;6.998;2022-10-17T13:36:53;19.30;88.04
64997;SHT31;51545;51.568;6.998;2022-10-17T13:39:21;19.35;87.68
64997;SHT31;51545;51.568;6.998;2022-10-17T13:41:49;19.36;88.23
64997;SHT31;51545;51.568;6.998;2022-10-17T13:44:18;19.35;88.14
64997;SHT31;51545;51.568;6.998;2022-10-17T13:46:45;19.35;88.10
64997;SHT31;51545;51.568;6.998;2022-10-17T13:51:52;19.30;88.52
64997;SHT31;51545;51.568;6.998;2022-10-17T13:54:40;19.27;88.63
64997;SHT31;51545;51.568;6.998;2022-10-17T13:59:55;19.44;87.95
64997;SHT31;51545;51.568;6.998;2022-10-17T14:02:29;19.55;88.32
64997;SHT31;51545;51.568;6.998;2022-10-17T14:05:07;19.57;88.02
64997;SHT31;51545;51.568;6.998;2022-10-17T14:07:52;19.70;87.72
64997;SHT31;51545;51.568;6.998;2022-10-17T14:10:33;19.79;87.77
64997;SHT31;51545;51.568;6.998;2022-10-17T14:13:02;19.86;86.81
64997;SHT31;51545;51.568;6.998;2022-10-17T14:15:34;19.93;86.47
64997;SHT31;51545;51.568;6.998;2022-10-17T14:18:07;20.01;85.93
64997;SHT31;51545;51.568;6.998;2022-10-17T14:20:38;20.02;85.89
64997;SHT31;51545;51.568;6.998;2022-10-17T14:23:24;19.98;86.46
64997;SHT31;51545;51.568;6.998;2022-10-17T14:26:06;19.91;86.48
64997;SHT31;51545;51.568;6.998;2022-10-17T14:28:34;19.85;86.94
64997;SHT31;51545;51.568;6.998;2022-10-17T14:31:10;19.75;86.27
64997;SHT31;51545;51.568;6.998;2022-10-17T14:33:46;19.75;86.78
64997;SHT31;51545;51.568;6.998;2022-10-17T14:36:12;19.74;86.25
64997;SHT31;51545;51.568;6.998;2022-10-17T14:38:43;19.70;87.01
64997;SHT31;51545;51.568;6.998;2022-10-17T14:41:19;19.71;86.18
64997;SHT31;51545;51.568;6.998;2022-10-17T14:43:58;19.64;86.34
64997;SHT31;51545;51.568;6.998;2022-10-17T14:46:27;19.64;86.25
64997;SHT31;51545;51.568;6.998;2022-10-17T14:48:55;19.63;86.37
64997;SHT31;51545;51.568;6.998;2022-10-17T14:51:29;19.67;86.12
64997;SHT31;51545;51.568;6.998;2022-10-17T14:54:02;19.64;86.15
64997;SHT31;51545;51.568;6.998;2022-10-17T14:56:50;19.65;86.52
64997;SHT31;51545;51.568;6.998;2022-10-17T14:59:16;19.55;86.79
64997;SHT31;51545;51.568;6.998;2022-10-17T15:01:46;19.49;87.39
64997;SHT31;51545;51.568;6.998;2022-10-17T15:04:13;19.51;86.52
64997;SHT31;51545;51.568;6.998;2022-10-17T15:06:39;19.55;86.76
64997;SHT31;51545;51.568;6.998;2022-10-17T15:09:04;19.50;86.74
64997;SHT31;51545;51.568;6.998;2022-10-17T15:11:30;19.49;86.91
64997;SHT31;51545;51.568;6.998;2022-10-17T15:13:55;19.44;87.22
64997;SHT31;51545;51.568;6.998;2022-10-17T15:16:22;19.43;87.33
64997;SHT31;51545;51.568;6.998;2022-10-17T15:18:50;19.47;87.17
64997;SHT31;51545;51.568;6.998;2022-10-17T15:21:19;19.42;87.54
64997;SHT31;51545;51.568;6.998;2022-10-17T15:23:46;19.36;87.84
64997;SHT31;51545;51.568;6.998;2022-10-17T15:26:19;19.35;88.02
64997;SHT31;51545;51.568;6.998;2022-10-17T15:28:54;19.27;88.57
64997;SHT31;51545;51.568;6.998;2022-10-17T15:31:20;19.20;88.91
64997;SHT31;51545;51.568;6.998;2022-10-17T15:33:47;19.12;89.52
64997;SHT31;51545;51.568;6.998;2022-10-17T15:36:23;19.09;89.89
64997;SHT31;51545;51.568;6.998;2022-10-17T15:38:53;19.01;90.26
64997;SHT31;51545;51.568;6.998;2022-10-17T15:41:20;18.99;90.69
64997;SHT31;51545;51.568;6.998;2022-10-17T15:43:46;18.94;90.86
64997;SHT31;51545;51.568;6.998;2022-10-17T15:46:13;18.88;91.23
64997;SHT31;51545;51.568;6.998;2022-10-17T15:48:42;18.75;91.79
64997;SHT31;51545;51.568;6.998;2022-10-17T15:51:07;18.71;92.16
64997;SHT31;51545;51.568;6.998;2022-10-17T15:53:33;18.65;92.44
64997;SHT31;51545;51.568;6.998;2022-10-17T15:55:59;18.61;92.54
64997;SHT31;51545;51.568;6.998;2022-10-17T15:58:24;18.56;92.78
64997;SHT31;51545;51.568;6.998;2022-10-17T16:00:55;18.53;93.00
64997;SHT31;51545;51.568;6.998;2022-10-17T16:03:20;18.47;93.39
64997;SHT31;51545;51.568;6.998;2022-10-17T16:05:46;18.43;93.58
64997;SHT31;51545;51.568;6.998;2022-10-17T16:08:11;18.34;93.88
64997;SHT31;51545;51.568;6.998;2022-10-17T16:10:37;18.29;94.30
64997;SHT31;51545;51.568;6.998;2022-10-17T16:13:04;18.26;94.49
64997;SHT31;51545;51.568;6.998;2022-10-17T16:15:30;18.13;94.90
64997;SHT31;51545;51.568;6.998;2022-10-17T16:17:55;18.09;95.18
64997;SHT31;51545;51.568;6.998;2022-10-17T16:20:22;18.04;95.15
64997;SHT31;51545;51.568;6.998;2022-10-17T16:22:49;17.99;95.14
64997;SHT31;51545;51.568;6.998;2022-10-17T16:25:19;18.01;95.44
64997;SHT31;51545;51.568;6.998;2022-10-17T16:27:47;17.97;95.53
64997;SHT31;51545;51.568;6.998;2022-10-17T16:30:14;17.92;95.78
64997;SHT31;51545;51.568;6.998;2022-10-17T16:32:40;17.88;95.76
64997;SHT31;51545;51.568;6.998;2022-10-17T16:35:07;17.82;95.85
64997;SHT31;51545;51.568;6.998;2022-10-17T16:37:32;17.78;95.86
64997;SHT31;51545;51.568;6.998;2022-10-17T16:39:59;17.74;96.21
64997;SHT31;51545;51.568;6.998;2022-10-17T16:42:25;17.67;96.22
64997;SHT31;51545;51.568;6.998;2022-10-17T16:44:51;17.67;96.17
64997;SHT31;51545;51.568;6.998;2022-10-17T16:47:16;17.64;96.22
64997;SHT31;51545;51.568;6.998;2022-10-17T16:49:43;17.58;96.25
64997;SHT31;51545;51.568;6.998;2022-10-17T16:52:09;17.61;96.15
64997;SHT31;51545;51.568;6.998;2022-10-17T16:54:35;17.60;96.16
64997;SHT31;51545;51.568;6.998;2022-10-17T16:57:01;17.55;96.19
64997;SHT31;51545;51.568;6.998;2022-10-17T16:59:27;17.55;96.11
64997;SHT31;51545;51.568;6.998;2022-10-17T17:01:53;17.55;96.19
64997;SHT31;51545;51.568;6.998;2022-10-17T17:04:18;17.54;96.17
64997;SHT31;51545;51.568;6.998;2022-10-17T17:06:44;17.54;96.30
64997;SHT31;51545;51.568;6.998;2022-10-17T17:09:10;17.51;96.46
64997;SHT31;51545;51.568;6.998;2022-10-17T17:11:35;17.47;96.49
64997;SHT31;51545;51.568;6.998;2022-10-17T17:14:01;17.49;96.54
64997;SHT31;51545;51.568;6.998;2022-10-17T17:16:28;17.47;96.44
64997;SHT31;51545;51.568;6.998;2022-10-17T17:18:56;17.47;96.45
64997;SHT31;51545;51.568;6.998;2022-10-17T17:21:25;17.43;96.50
64997;SHT31;51545;51.568;6.998;2022-10-17T17:23:52;17.35;96.69
64997;SHT31;51545;51.568;6.998;2022-10-17T17:26:19;17.33;96.76
64997;SHT31;51545;51.568;6.998;2022-10-17T17:28:46;17.29;96.63
64997;SHT31;51545;51.568;6.998;2022-10-17T17:31:17;17.26;96.74